createdAt,value
2023-01-01T00:01:55.246Z,57.78
2023-01-01T00:04:23.141Z,71.25
2023-01-01T00:06:51.033Z,71.68
2023-01-01T00:09:37.819Z,71.68
2023-01-01T00:12:06.495Z,72.28
2023-01-01T00:14:34.955Z,77.43
2023-01-01T00:17:02.904Z,80.00
2023-01-01T00:19:30.813Z,95.97
2023-01-01T00:22:02.078Z,101.07
2023-01-01T00:24:34.793Z,57.20
2023-01-01T00:27:02.654Z,33.75
2023-01-01T00:29:30.530Z,47.00
2023-01-01T00:31:58.460Z,75.95
2023-01-01T00:34:26.374Z,61.40
2023-01-01T00:36:54.267Z,39.00
2023-01-01T00:39:22.198Z,42.08
2023-01-01T00:41:51.393Z,27.27
2023-01-01T00:44:19.259Z,33.20
2023-01-01T00:46:54.215Z,34.67
2023-01-01T00:49:22.574Z,53.55
2023-01-01T00:51:50.434Z,45.42
2023-01-01T00:54:18.324Z,42.28
2023-01-01T00:56:46.265Z,43.35
2023-01-01T00:59:15.477Z,56.28
2023-01-01T01:01:43.452Z,64.47
2023-01-01T01:04:11.382Z,62.55
2023-01-01T01:06:39.279Z,52.85
2023-01-01T01:09:07.723Z,54.67
2023-01-01T01:11:35.591Z,49.58
2023-01-01T01:14:03.457Z,40.03
2023-01-01T01:16:34.645Z,37.33
2023-01-01T01:19:04.618Z,40.70
2023-01-01T01:21:35.076Z,42.55
2023-01-01T01:24:04.328Z,41.88
2023-01-01T01:26:33.595Z,45.83
2023-01-01T01:29:01.579Z,34.17
2023-01-01T01:31:32.390Z,30.30
2023-01-01T01:34:00.633Z,28.40
2023-01-01T01:36:29.685Z,21.70
2023-01-01T01:38:57.704Z,32.05
2023-01-01T01:41:28.648Z,29.98
2023-01-01T01:43:59.444Z,18.55
2023-01-01T01:46:33.317Z,14.52
2023-01-01T01:49:05.374Z,13.38
2023-01-01T01:51:37.816Z,11.48
2023-01-01T01:54:11.516Z,8.03
2023-01-01T01:56:44.713Z,7.65
2023-01-01T01:59:12.726Z,7.90
2023-01-01T02:01:42.433Z,7.78
2023-01-01T02:04:10.626Z,7.45
2023-01-01T02:06:40.543Z,7.38
2023-01-01T02:09:09.995Z,8.02
2023-01-01T02:11:38.276Z,8.60
2023-01-01T02:14:06.865Z,6.93
2023-01-01T02:16:38.841Z,6.90
2023-01-01T02:19:16.329Z,6.15
2023-01-01T02:22:00.659Z,5.68
2023-01-01T02:24:44.597Z,5.68
2023-01-01T02:27:19.566Z,5.13
2023-01-01T02:29:51.985Z,4.35
2023-01-01T02:32:23.521Z,4.10
2023-01-01T02:34:55.916Z,4.38
2023-01-01T02:37:26.468Z,4.35
2023-01-01T02:39:57.496Z,3.88
2023-01-01T02:42:29.854Z,4.32
2023-01-01T02:45:01.165Z,4.22
2023-01-01T02:47:29.054Z,4.28
2023-01-01T02:50:03.171Z,4.82
2023-01-01T02:52:51.353Z,4.65
2023-01-01T02:55:30.048Z,4.60
2023-01-01T02:58:24.968Z,4.75
2023-01-01T03:00:58.671Z,4.45
2023-01-01T03:03:31.966Z,4.78
2023-01-01T03:06:23.591Z,5.22
2023-01-01T03:09:09.535Z,5.55
2023-01-01T03:11:46.467Z,5.22
2023-01-01T03:14:21.303Z,5.40
2023-01-01T03:16:54.037Z,7.13
2023-01-01T03:19:24.101Z,7.70
2023-01-01T03:21:55.946Z,6.93
2023-01-01T03:24:27.337Z,7.38
2023-01-01T03:26:58.699Z,7.00
2023-01-01T03:29:29.698Z,5.55
2023-01-01T03:32:01.206Z,5.30
2023-01-01T03:34:33.540Z,6.00
2023-01-01T03:37:06.451Z,5.32
2023-01-01T03:39:37.634Z,5.68
2023-01-01T03:42:12.779Z,6.22
2023-01-01T03:44:46.678Z,5.72
2023-01-01T03:47:16.684Z,6.03
2023-01-01T03:49:45.172Z,5.55
2023-01-01T03:52:31.776Z,5.20
2023-01-01T03:55:06.694Z,5.93
2023-01-01T03:57:42.693Z,7.25
2023-01-01T04:00:16.305Z,7.18
2023-01-01T04:02:50.264Z,7.10
2023-01-01T04:05:20.208Z,7.05
2023-01-01T04:10:20.592Z,6.60
2023-01-01T04:12:50.786Z,6.38
2023-01-01T04:15:20.519Z,7.95
2023-01-01T04:17:51.381Z,8.55
2023-01-01T04:20:20.207Z,5.50
2023-01-01T04:22:48.628Z,6.07
2023-01-01T04:25:17.931Z,6.20
2023-01-01T04:27:45.862Z,5.60
2023-01-01T04:30:15.599Z,6.25
2023-01-01T04:32:45.469Z,7.40
2023-01-01T04:35:15.936Z,6.40
2023-01-01T04:37:45.667Z,6.03
2023-01-01T04:40:14.893Z,5.53
2023-01-01T04:42:43.310Z,5.10
2023-01-01T04:45:12.359Z,5.25
2023-01-01T04:47:41.343Z,4.28
2023-01-01T04:50:09.880Z,4.53
2023-01-01T04:52:39.298Z,5.30
2023-01-01T04:55:08.006Z,5.45
2023-01-01T04:57:36.686Z,4.57
2023-01-01T05:00:05.800Z,4.28
2023-01-01T05:02:33.819Z,3.88
2023-01-01T05:05:01.737Z,3.95
2023-01-01T05:07:29.622Z,3.90
2023-01-01T05:09:58.824Z,4.18
2023-01-01T05:12:26.682Z,3.17
2023-01-01T05:14:54.584Z,3.00
2023-01-01T05:17:22.442Z,2.90
2023-01-01T05:19:50.270Z,2.92
2023-01-01T05:22:18.136Z,3.00
2023-01-01T05:24:46.014Z,3.17
2023-01-01T05:27:15.204Z,2.90
2023-01-01T05:29:43.062Z,2.80
2023-01-01T05:37:04.480Z,2.95
2023-01-01T05:39:32.337Z,2.75
2023-01-01T05:42:00.215Z,2.92
2023-01-01T05:44:29.443Z,2.95
2023-01-01T05:46:57.983Z,3.40
2023-01-01T05:49:25.853Z,3.13
2023-01-01T05:51:53.738Z,3.10
2023-01-01T05:54:21.569Z,3.22
2023-01-01T05:56:49.409Z,2.72
2023-01-01T05:59:17.275Z,2.83
2023-01-01T06:01:46.566Z,2.60
2023-01-01T06:04:15.020Z,2.97
2023-01-01T06:06:43.165Z,2.97
2023-01-01T06:09:12.350Z,2.80
2023-01-01T06:11:40.194Z,3.47
2023-01-01T06:14:08.123Z,3.00
2023-01-01T06:16:36.066Z,2.58
2023-01-01T06:19:05.361Z,3.33
2023-01-01T06:21:33.281Z,2.45
2023-01-01T06:24:01.666Z,2.53
2023-01-01T06:26:32.315Z,2.13
2023-01-01T06:29:03.018Z,2.92
2023-01-01T06:31:35.578Z,1.90
2023-01-01T06:34:07.715Z,2.00
2023-01-01T06:36:35.566Z,1.95
2023-01-01T06:39:04.407Z,2.20
2023-01-01T06:41:32.838Z,2.08
2023-01-01T06:44:02.045Z,2.05
2023-01-01T06:46:32.408Z,2.00
2023-01-01T06:49:02.768Z,2.10
2023-01-01T06:51:33.646Z,1.90
2023-01-01T06:54:02.591Z,2.17
2023-01-01T06:56:31.005Z,2.33
2023-01-01T06:58:59.169Z,2.20
2023-01-01T07:01:28.825Z,2.15
2023-01-01T07:03:58.024Z,1.83
2023-01-01T07:06:26.924Z,1.88
2023-01-01T07:08:56.762Z,2.20
2023-01-01T07:11:25.456Z,2.10
2023-01-01T07:13:53.357Z,2.03
2023-01-01T07:16:21.605Z,1.80
2023-01-01T07:18:50.578Z,1.83
2023-01-01T07:21:30.323Z,1.70
2023-01-01T07:24:00.744Z,1.73
2023-01-01T07:26:29.972Z,1.60
2023-01-01T07:29:04.660Z,1.70
2023-01-01T07:31:35.681Z,1.30
2023-01-01T07:34:03.670Z,1.58
2023-01-01T07:36:31.587Z,1.55
2023-01-01T07:39:00.816Z,1.48
2023-01-01T07:41:28.864Z,1.52
2023-01-01T07:43:56.846Z,1.23
2023-01-01T07:46:24.827Z,1.45
2023-01-01T07:48:52.798Z,1.50
2023-01-01T07:51:20.874Z,1.30
2023-01-01T07:53:48.708Z,1.20
2023-01-01T07:56:18.017Z,1.20
2023-01-01T07:58:45.908Z,1.38
2023-01-01T08:01:15.531Z,1.58
2023-01-01T08:03:43.662Z,1.23
2023-01-01T08:06:13.167Z,1.40
2023-01-01T08:08:41.399Z,1.40
2023-01-01T08:11:09.532Z,1.20
2023-01-01T08:13:38.735Z,1.50
2023-01-01T08:16:07.267Z,1.35
2023-01-01T08:18:35.284Z,1.45
2023-01-01T08:21:03.296Z,1.38
2023-01-01T08:23:31.575Z,1.48
2023-01-01T08:26:01.176Z,1.23
2023-01-01T08:28:29.353Z,1.15
2023-01-01T08:30:59.379Z,1.17
2023-01-01T08:33:27.366Z,1.20
2023-01-01T08:35:55.314Z,1.00
2023-01-01T08:38:23.342Z,1.42
2023-01-01T08:40:51.225Z,1.33
2023-01-01T08:43:19.364Z,1.30
2023-01-01T08:45:47.315Z,1.20
2023-01-01T08:48:16.523Z,1.25
2023-01-01T08:50:44.398Z,1.27
2023-01-01T08:53:12.236Z,1.33
2023-01-01T08:55:40.102Z,1.60
2023-01-01T08:58:08.405Z,1.27
2023-01-01T09:00:36.562Z,1.08
2023-01-01T09:03:04.678Z,1.30
2023-01-01T09:05:33.976Z,0.90
2023-01-01T09:08:01.883Z,1.20
2023-01-01T09:10:29.762Z,1.30
2023-01-01T09:12:57.641Z,1.40
2023-01-01T09:15:25.543Z,1.10
2023-01-01T09:17:53.418Z,1.23
2023-01-01T09:20:21.360Z,1.40
2023-01-01T09:22:50.756Z,1.20
2023-01-01T09:25:18.769Z,1.20
2023-01-01T09:27:46.726Z,1.20
2023-01-01T09:30:15.613Z,1.58
2023-01-01T09:32:43.507Z,1.30
2023-01-01T09:35:11.392Z,1.25
2023-01-01T09:37:39.248Z,1.27
2023-01-01T09:40:14.465Z,1.30
2023-01-01T09:42:47.898Z,1.05
2023-01-01T09:47:53.365Z,1.77
2023-01-01T09:50:24.698Z,1.20
2023-01-01T09:52:57.177Z,1.17
2023-01-01T09:55:29.764Z,1.30
2023-01-01T09:57:58.531Z,1.33
2023-01-01T10:00:27.516Z,1.10
2023-01-01T10:03:14.415Z,1.35
2023-01-01T10:05:50.941Z,1.30
2023-01-01T10:08:28.551Z,1.10
2023-01-01T10:11:09.657Z,1.10
2023-01-01T10:13:41.920Z,1.10
2023-01-01T10:16:17.993Z,1.40
2023-01-01T10:18:53.037Z,1.58
2023-01-01T10:21:25.348Z,1.30
2023-01-01T10:23:55.780Z,1.45
2023-01-01T10:26:29.530Z,1.27
2023-01-01T10:29:02.572Z,1.42
2023-01-01T10:31:34.212Z,1.00
2023-01-01T10:34:13.277Z,1.10
2023-01-01T10:36:41.201Z,1.30
2023-01-01T10:39:13.878Z,1.50
2023-01-01T10:41:43.275Z,1.33
2023-01-01T10:44:11.716Z,1.30
2023-01-01T10:46:44.131Z,1.15
2023-01-01T10:49:13.390Z,1.13
2023-01-01T10:51:45.687Z,1.10
2023-01-01T10:54:32.031Z,1.00
2023-01-01T10:57:01.889Z,1.20
2023-01-01T10:59:36.196Z,1.05
2023-01-01T11:02:26.492Z,1.10
2023-01-01T11:05:20.717Z,1.20
2023-01-01T11:07:50.034Z,1.55
2023-01-01T11:10:20.088Z,1.30
2023-01-01T11:13:06.549Z,1.20
2023-01-01T11:15:38.645Z,1.35
2023-01-01T11:20:59.613Z,0.90
2023-01-01T11:23:31.737Z,1.15
2023-01-01T11:26:03.366Z,0.90
2023-01-01T11:28:34.891Z,1.15
2023-01-01T11:31:15.573Z,1.05
2023-01-01T11:33:49.494Z,1.00
2023-01-01T11:36:25.263Z,1.38
2023-01-01T11:39:07.646Z,1.00
2023-01-01T11:41:44.156Z,1.38
2023-01-01T11:44:23.196Z,1.35
2023-01-01T11:46:51.138Z,1.75
2023-01-01T11:49:24.547Z,1.52
2023-01-01T11:51:52.635Z,1.27
2023-01-01T11:54:32.798Z,1.30
2023-01-01T11:57:08.303Z,1.00
2023-01-01T11:59:46.717Z,1.40
2023-01-01T12:02:19.393Z,1.08
2023-01-01T12:04:53.955Z,1.17
2023-01-01T12:07:26.657Z,1.20
2023-01-01T12:10:01.454Z,1.00
2023-01-01T12:12:35.359Z,1.05
2023-01-01T12:15:15.098Z,1.10
2023-01-01T12:17:46.663Z,1.17
2023-01-01T12:20:21.353Z,0.90
2023-01-01T12:22:49.914Z,1.30
2023-01-01T12:25:20.864Z,1.10
2023-01-01T12:28:03.924Z,1.27
2023-01-01T12:30:40.900Z,1.02
2023-01-01T12:33:27.419Z,1.10
2023-01-01T12:36:11.284Z,1.40
2023-01-01T12:38:59.852Z,1.42
2023-01-01T12:41:33.667Z,1.20
2023-01-01T12:44:09.348Z,1.05
2023-01-01T12:46:49.892Z,1.00
2023-01-01T12:49:48.455Z,1.30
2023-01-01T12:52:30.069Z,1.25
2023-01-01T12:55:38.179Z,0.98
2023-01-01T12:58:13.093Z,1.00
2023-01-01T13:00:45.060Z,1.00
2023-01-01T13:03:20.385Z,1.00
2023-01-01T13:05:52.552Z,0.90
2023-01-01T13:08:20.428Z,1.13
2023-01-01T13:10:51.407Z,0.85
2023-01-01T13:13:19.438Z,0.95
2023-01-01T13:15:55.573Z,1.00
2023-01-01T13:18:28.152Z,0.80
2023-01-01T13:21:05.725Z,0.90
2023-01-01T13:23:47.941Z,0.85
2023-01-01T13:26:35.799Z,1.10
2023-01-01T13:29:33.341Z,0.80
2023-01-01T13:32:05.154Z,1.05
2023-01-01T13:34:41.791Z,0.85
2023-01-01T13:37:44.705Z,0.85
2023-01-01T13:40:50.967Z,1.00
2023-01-01T13:43:29.415Z,1.02
2023-01-01T13:46:11.474Z,1.20
2023-01-01T13:49:16.173Z,0.95
2023-01-01T13:52:05.876Z,1.00
2023-01-01T13:55:29.464Z,1.00
2023-01-01T13:58:25.250Z,0.90
2023-01-01T14:01:23.019Z,0.98
2023-01-01T14:03:54.604Z,1.10
2023-01-01T14:06:29.925Z,0.80
2023-01-01T14:09:08.527Z,1.13
2023-01-01T14:11:36.458Z,0.70
2023-01-01T14:14:04.483Z,0.88
2023-01-01T14:16:32.410Z,0.90
2023-01-01T14:19:03.303Z,1.00
2023-01-01T14:21:34.428Z,1.05
2023-01-01T14:24:05.672Z,1.90
2023-01-01T14:26:35.155Z,1.98
2023-01-01T14:29:07.345Z,1.90
2023-01-01T14:31:37.574Z,1.98
2023-01-01T14:34:15.319Z,2.13
2023-01-01T14:36:51.873Z,1.80
2023-01-01T14:39:28.794Z,1.48
2023-01-01T14:42:01.224Z,1.42
2023-01-01T14:44:35.119Z,1.70
2023-01-01T14:47:04.457Z,1.65
2023-01-01T14:49:34.616Z,1.50
2023-01-01T14:52:04.752Z,1.42
2023-01-01T14:54:37.534Z,1.58
2023-01-01T14:57:11.656Z,1.45
2023-01-01T14:59:47.996Z,1.48
2023-01-01T15:02:18.604Z,1.48
2023-01-01T15:04:46.637Z,1.75
2023-01-01T15:07:22.508Z,1.95
2023-01-01T15:09:52.229Z,1.85
2023-01-01T15:12:21.104Z,1.85
2023-01-01T15:14:50.563Z,1.80
2023-01-01T15:17:19.908Z,1.55
2023-01-01T15:20:01.113Z,1.92
2023-01-01T15:22:31.855Z,1.90
2023-01-01T15:25:01.892Z,1.98
2023-01-01T15:27:31.982Z,1.67
2023-01-01T15:30:00.415Z,1.58
2023-01-01T15:32:31.989Z,1.95
2023-01-01T15:35:02.977Z,2.08
2023-01-01T15:37:34.937Z,2.13
2023-01-01T15:40:25.759Z,1.90
2023-01-01T15:43:12.711Z,1.85
2023-01-01T15:45:42.454Z,2.08
2023-01-01T15:48:22.223Z,2.00
2023-01-01T15:51:07.355Z,2.28
2023-01-01T15:53:47.822Z,2.35
2023-01-01T15:56:17.890Z,3.15
2023-01-01T15:58:54.063Z,15.98
2023-01-01T16:01:24.984Z,3.95
2023-01-01T16:04:01.140Z,5.88
2023-01-01T16:06:29.767Z,4.35
2023-01-01T16:08:57.616Z,5.72
2023-01-01T16:11:26.912Z,5.88
2023-01-01T16:13:54.874Z,6.97
2023-01-01T16:16:28.725Z,5.05
2023-01-01T16:18:57.343Z,3.17
2023-01-01T16:21:27.605Z,3.10
2023-01-01T16:23:56.310Z,2.53
2023-01-01T16:26:24.207Z,2.70
2023-01-01T16:28:53.524Z,2.80
2023-01-01T16:31:25.388Z,2.38
2023-01-01T16:33:55.666Z,2.70
2023-01-01T16:36:23.916Z,2.65
2023-01-01T16:38:51.803Z,2.72
2023-01-01T16:41:20.009Z,3.13
2023-01-01T16:43:48.761Z,2.47
2023-01-01T16:46:18.139Z,2.88
2023-01-01T16:48:46.066Z,2.95
2023-01-01T16:51:20.259Z,3.00
2023-01-01T16:53:48.586Z,2.65
2023-01-01T16:56:17.447Z,2.70
2023-01-01T16:58:51.247Z,2.53
2023-01-01T17:01:21.704Z,2.53
2023-01-01T17:03:51.443Z,2.83
2023-01-01T17:06:19.799Z,2.53
2023-01-01T17:08:47.681Z,2.10
2023-01-01T17:11:17.331Z,2.30
2023-01-01T17:13:47.005Z,2.70
2023-01-01T17:16:23.270Z,2.22
2023-01-01T17:21:45.285Z,2.35
2023-01-01T17:24:13.224Z,2.90
2023-01-01T17:26:41.177Z,2.72
2023-01-01T17:29:09.332Z,2.55
2023-01-01T17:31:55.395Z,2.95
2023-01-01T17:34:26.501Z,2.40
2023-01-01T17:36:54.362Z,2.50
2023-01-01T17:39:22.197Z,2.95
2023-01-01T17:41:50.335Z,2.70
2023-01-01T17:44:18.338Z,2.55
2023-01-01T17:46:46.389Z,2.60
2023-01-01T17:49:14.343Z,2.47
2023-01-01T17:51:43.731Z,2.60
2023-01-01T17:54:13.656Z,2.42
2023-01-01T17:56:42.029Z,2.70
2023-01-01T17:59:10.373Z,2.90
2023-01-01T18:01:38.432Z,2.95
2023-01-01T18:04:07.975Z,3.10
2023-01-01T18:06:42.128Z,2.97
2023-01-01T18:09:14.359Z,2.53
2023-01-01T18:11:43.086Z,2.88
2023-01-01T18:14:11.694Z,3.50
2023-01-01T18:16:41.020Z,2.83
2023-01-01T18:19:09.182Z,3.00
2023-01-01T18:21:37.178Z,2.88
2023-01-01T18:24:12.829Z,3.20
2023-01-01T18:26:44.658Z,2.75
2023-01-01T18:29:12.769Z,2.92
2023-01-01T18:31:40.788Z,2.90
2023-01-01T18:34:08.785Z,2.58
2023-01-01T18:36:40.410Z,2.65
2023-01-01T18:39:15.683Z,3.00
2023-01-01T18:42:13.919Z,2.65
2023-01-01T18:44:43.394Z,2.45
2023-01-01T18:47:15.362Z,2.78
2023-01-01T18:49:48.468Z,3.13
2023-01-01T18:52:23.705Z,3.25
2023-01-01T18:55:12.046Z,3.00
2023-01-01T18:57:42.023Z,2.92
2023-01-01T19:00:18.991Z,3.42
2023-01-01T19:02:53.934Z,2.55
2023-01-01T19:05:26.891Z,2.58
2023-01-01T19:08:11.846Z,3.17
2023-01-01T19:10:41.903Z,2.38
2023-01-01T19:13:16.989Z,2.95
2023-01-01T19:15:47.321Z,3.25
2023-01-01T19:18:18.469Z,3.35
2023-01-01T19:20:46.867Z,3.08
2023-01-01T19:23:19.848Z,3.35
2023-01-01T19:25:48.716Z,2.63
2023-01-01T19:28:32.468Z,2.90
2023-01-01T19:31:01.075Z,3.05
2023-01-01T19:33:29.983Z,2.92
2023-01-01T19:35:58.326Z,3.70
2023-01-01T19:38:26.212Z,3.20
2023-01-01T19:40:54.182Z,3.65
2023-01-01T19:43:22.114Z,3.50
2023-01-01T19:45:51.344Z,3.03
2023-01-01T19:48:19.208Z,3.63
2023-01-01T19:50:47.660Z,3.30
2023-01-01T19:53:15.613Z,3.55
2023-01-01T19:55:43.587Z,3.42
2023-01-01T19:58:12.474Z,3.15
2023-01-01T20:00:40.404Z,3.47
2023-01-01T20:03:43.293Z,3.03
2023-01-01T20:05:57.613Z,2.58
2023-01-01T20:08:26.891Z,3.10
2023-01-01T20:10:54.884Z,2.80
2023-01-01T20:13:45.648Z,2.90
2023-01-01T20:16:17.433Z,2.50
2023-01-01T20:18:48.072Z,2.83
2023-01-01T20:21:33.944Z,2.63
2023-01-01T20:24:01.853Z,2.53
2023-01-01T20:26:30.218Z,2.45
2023-01-01T20:29:15.473Z,2.55
2023-01-01T20:31:43.841Z,2.58
2023-01-01T20:34:13.438Z,2.35
2023-01-01T20:36:58.854Z,2.53
2023-01-01T20:39:27.352Z,2.60
2023-01-01T20:42:00.046Z,2.45
2023-01-01T20:44:28.505Z,2.95
2023-01-01T20:46:56.811Z,3.08
2023-01-01T20:49:26.026Z,2.78
2023-01-01T20:51:54.679Z,2.47
2023-01-01T20:54:23.488Z,2.45
2023-01-01T20:56:51.470Z,2.20
2023-01-01T20:59:36.916Z,2.10
2023-01-01T21:02:06.454Z,2.38
2023-01-01T21:04:38.522Z,1.92
2023-01-01T21:07:07.890Z,1.52
2023-01-01T21:09:35.765Z,2.40
2023-01-01T21:12:03.796Z,1.83
2023-01-01T21:14:32.440Z,2.10
2023-01-01T21:17:01.089Z,2.03
2023-01-01T21:19:29.383Z,2.35
2023-01-01T21:21:59.473Z,2.10
2023-01-01T21:24:29.329Z,2.10
2023-01-01T21:27:02.712Z,2.10
2023-01-01T21:32:19.740Z,1.80
2023-01-01T21:34:48.966Z,1.90
2023-01-01T21:37:37.982Z,1.75
2023-01-01T21:40:35.607Z,1.50
2023-01-01T21:43:39.222Z,2.00
2023-01-01T21:46:34.824Z,1.80
2023-01-01T21:49:07.370Z,2.05
2023-01-01T21:51:40.982Z,2.07
2023-01-01T21:54:34.026Z,1.75
2023-01-01T21:57:03.674Z,1.93
2023-01-01T21:59:37.172Z,2.25
2023-01-01T22:02:31.735Z,1.88
2023-01-01T22:05:03.089Z,2.30
2023-01-01T22:10:26.898Z,2.10
2023-01-01T22:12:58.660Z,1.80
2023-01-01T22:15:38.956Z,2.40
2023-01-01T22:18:20.447Z,2.47
2023-01-01T22:20:48.689Z,2.47
2023-01-01T22:23:34.578Z,2.22
2023-01-01T22:26:12.816Z,2.22
2023-01-01T22:28:43.963Z,2.25
2023-01-01T22:31:17.727Z,2.00
2023-01-01T22:33:47.979Z,2.13
2023-01-01T22:36:18.825Z,2.08
2023-01-01T22:38:46.933Z,1.98
2023-01-01T22:41:16.559Z,1.85
2023-01-01T22:43:47.276Z,2.03
2023-01-01T22:46:27.165Z,1.95
2023-01-01T22:48:58.854Z,1.85
2023-01-01T22:51:29.613Z,1.85
2023-01-01T22:53:57.512Z,1.52
2023-01-01T22:56:26.676Z,1.90
2023-01-01T22:58:57.241Z,1.80
2023-01-01T23:01:25.762Z,1.67
2023-01-01T23:03:53.989Z,1.77
2023-01-01T23:06:22.681Z,1.77
2023-01-01T23:08:51.144Z,2.13
2023-01-01T23:11:19.361Z,1.77
2023-01-01T23:14:07.973Z,1.70
2023-01-01T23:16:36.094Z,2.10
2023-01-01T23:19:05.043Z,1.63
2023-01-01T23:21:34.555Z,2.10
2023-01-01T23:24:06.944Z,2.00
2023-01-01T23:26:35.166Z,1.80
2023-01-01T23:29:04.800Z,2.10
2023-01-01T23:31:33.790Z,1.90
2023-01-01T23:34:02.187Z,2.13
2023-01-01T23:36:30.673Z,1.88
2023-01-01T23:38:58.628Z,1.73
2023-01-01T23:41:26.556Z,1.95
2023-01-01T23:43:54.395Z,1.77
2023-01-01T23:46:23.837Z,2.00
2023-01-01T23:48:53.384Z,2.20
2023-01-01T23:51:21.829Z,1.75
2023-01-01T23:53:49.667Z,1.80
2023-01-01T23:56:17.660Z,1.88
2023-01-01T23:58:45.599Z,2.13
